Green Level, North Carolina
Current Conditions -  °F | °C
As of 3:54 PM on Thursday 20 Nov 2014 (Local Time) from KBUY Reporting Station
Clear Clear  
Wind Chill: 56°   Ceiling: Unl
Heat Index: 56°   Visibility: 10mi
Dew Point: 25°   Wind: 16mph
Humidity: 30%   Direction: 230°SW
Pressure: 30.01"   Gusts: NA
Location:  36.2012°N, 79.3807°W
Report Text: KBUY 202054Z AUTO 23014KT 10SM CLR 13/M04 A3001 RMK AO2 SLP164 T01331039 55006
Loading
Personal Weather Stations






























Interactive Weather Map New forecast layout! Learn more

10-Day Weather Forecast

Advertisements
Track Severe Weather on mobile